Time;durP1;ratioP1;P1;durP2;ratioP2;P2;SDS_P1;SDS_P2;PMS_P1;PMS_P2;Temp;Humidity;BMP_temperature;BMP_pressure;BME280_temperature;BME280_humidity;BME280_pressure;Samples;Min_cycle;Max_cycle;Signal;HPM_P1;HPM_P2
2022/06/18 00:00:19;;;;;;;2.40;2.10;;;;;;;13.78;100.00;99479.08;1730835;81;20947;-73
2022/06/18 00:02:45;;;;;;;1.70;1.60;;;;;;;13.74;100.00;99473.63;1739348;81;21736;-73
2022/06/18 00:05:15;;;;;;;1.50;1.40;;;;;;;13.73;100.00;99472.41;1735411;82;21058;-73
2022/06/18 00:07:52;;;;;;;2.58;1.87;;;;;;;13.72;100.00;99474.17;1735034;82;21403;-73
2022/06/18 00:10:22;;;;;;;2.20;2.02;;;;;;;13.75;100.00;99469.25;1735054;82;21208;-73
2022/06/18 00:15:38;;;;;;;2.20;1.90;;;;;;;13.82;100.00;99471.05;1732122;81;21011;-74
2022/06/18 00:18:11;;;;;;;2.90;2.30;;;;;;;13.87;100.00;99459.41;1739344;82;21029;-73
2022/06/18 00:20:37;;;;;;;2.60;2.40;;;;;;;13.89;100.00;99465.41;1724254;81;21058;-74
2022/06/18 00:23:06;;;;;;;2.62;2.42;;;;;;;13.88;100.00;99461.10;1735120;81;21766;-73
2022/06/18 00:25:36;;;;;;;2.40;2.22;;;;;;;13.88;100.00;99462.88;1727530;81;20935;-73
2022/06/18 00:28:16;;;;;;;3.33;2.58;;;;;;;13.85;100.00;99462.57;1727137;82;21156;-73
2022/06/18 00:30:43;;;;;;;2.90;2.50;;;;;;;13.84;100.00;99458.73;1723146;82;21055;-73
2022/06/18 00:33:10;;;;;;;2.90;2.70;;;;;;;13.84;100.00;99462.19;1726629;81;21144;-73
2022/06/18 00:35:37;;;;;;;3.58;2.33;;;;;;;13.84;100.00;99458.73;1732944;82;21409;-73
2022/06/18 00:38:06;;;;;;;2.80;2.50;;;;;;;13.83;100.00;99451.35;1726283;81;20989;-73
2022/06/18 00:40:41;;;;;;;3.20;2.50;;;;;;;13.84;100.00;99456.97;1726082;81;20946;-73
2022/06/18 00:43:22;;;;;;;3.00;2.70;;;;;;;13.87;100.00;99455.95;1719899;81;21106;-74
2022/06/18 00:45:51;;;;;;;2.90;2.60;;;;;;;13.85;100.00;99457.34;1732868;82;21041;-72
2022/06/18 00:48:32;;;;;;;2.77;2.47;;;;;;;13.87;100.00;99460.72;1709523;82;21245;-73
2022/06/18 00:51:25;;;;;;;2.40;2.20;;;;;;;13.87;100.00;99452.87;1738219;81;20942;-73
2022/06/18 00:54:08;;;;;;;3.40;2.47;;;;;;;13.87;100.00;99453.34;1722126;82;20954;-74
2022/06/18 00:56:46;;;;;;;3.10;2.80;;;;;;;13.82;100.00;99444.90;1735006;81;21053;-74
2022/06/18 00:59:31;;;;;;;2.60;2.40;;;;;;;13.82;100.00;99442.28;1719219;81;20958;-74
2022/06/18 01:01:58;;;;;;;2.52;2.02;;;;;;;13.85;100.00;99446.05;1730645;81;22069;-72
2022/06/18 01:04:32;;;;;;;2.40;2.20;;;;;;;13.88;100.00;99450.64;1735592;82;21109;-72
2022/06/18 01:07:17;;;;;;;3.15;2.80;;;;;;;13.92;100.00;99452.63;1749754;81;20991;-73
2022/06/18 01:09:46;;;;;;;3.90;3.00;;;;;;;13.94;100.00;99446.86;1729547;82;21049;-74
2022/06/18 01:12:13;;;;;;;3.83;2.50;;;;;;;13.93;100.00;99448.62;1730988;81;21120;-74
2022/06/18 01:14:41;;;;;;;3.70;2.50;;;;;;;13.92;100.00;99444.33;1726323;82;21778;-75
2022/06/18 01:17:09;;;;;;;2.77;2.58;;;;;;;13.92;100.00;99444.33;1731266;82;21629;-73
2022/06/18 01:19:40;;;;;;;2.70;2.50;;;;;;;13.92;100.00;99447.41;1743906;81;21041;-73
2022/06/18 01:22:30;;;;;;;2.98;2.55;;;;;;;13.91;100.00;99440.02;1743718;81;21576;-73
2022/06/18 01:24:58;;;;;;;2.72;2.25;;;;;;;13.92;100.00;99442.17;1728269;81;21600;-71
2022/06/18 01:27:25;;;;;;;3.00;2.27;;;;;;;13.93;100.00;99445.17;1738797;81;21218;-72
2022/06/18 01:29:53;;;;;;;2.67;2.47;;;;;;;13.90;100.00;99442.26;1747041;81;21112;-72
2022/06/18 01:32:24;;;;;;;3.17;2.47;;;;;;;13.92;100.00;99443.02;1735790;81;21006;-73
2022/06/18 01:34:51;;;;;;;2.80;2.37;;;;;;;13.94;100.00;99442.94;1735433;82;21069;-73
2022/06/18 01:37:18;;;;;;;2.67;2.47;;;;;;;13.94;100.00;99437.24;1731344;81;21093;-73
2022/06/18 01:39:46;;;;;;;1.98;1.87;;;;;;;13.97;100.00;99444.92;1734872;81;21104;-73
2022/06/18 01:42:27;;;;;;;3.72;2.60;;;;;;;13.97;100.00;99441.00;1677867;84;21031;-73
2022/06/18 01:45:06;;;;;;;2.60;2.45;;;;;;;13.99;100.00;99444.34;1709432;83;21090;-73
2022/06/18 01:48:13;;;;;;;3.22;2.92;;;;;;;14.01;100.00;99437.72;1663523;85;21156;-73
2022/06/18 01:51:06;;;;;;;2.72;2.52;;;;;;;14.00;100.00;99441.27;1677615;83;20996;-73
2022/06/18 01:53:39;;;;;;;;;;;;;;;14.02;100.00;99438.10;1731749;81;21305;-73
2022/06/18 01:56:14;;;;;;;2.87;2.62;;;;;;;14.07;100.00;99441.31;1720211;82;20435;-73
2022/06/18 01:58:52;;;;;;;3.47;2.80;;;;;;;14.08;100.00;99439.08;1729697;82;21018;-73
2022/06/18 02:01:25;;;;;;;3.75;3.45;;;;;;;14.08;100.00;99441.23;1738026;81;21014;-73
2022/06/18 02:03:54;;;;;;;2.50;2.30;;;;;;;14.07;100.00;99440.84;1727613;81;20997;-74
2022/06/18 02:06:22;;;;;;;2.52;2.20;;;;;;;14.06;100.00;99441.77;1733137;81;20935;-73
2022/06/18 02:08:48;;;;;;;2.62;2.33;;;;;;;14.03;100.00;99441.94;1725694;81;21045;-74
2022/06/18 02:11:16;;;;;;;3.52;2.47;;;;;;;14.04;100.00;99443.63;1729635;81;21084;-74
2022/06/18 02:13:53;;;;;;;3.62;2.20;;;;;;;14.04;100.00;99443.63;1726153;82;21057;-73
2022/06/18 02:16:23;;;;;;;2.62;2.42;;;;;;;14.01;100.00;99445.56;1742220;81;21068;-73
2022/06/18 02:18:50;;;;;;;2.77;2.35;;;;;;;14.00;100.00;99447.80;1750028;81;21041;-73
2022/06/18 02:21:23;;;;;;;2.98;2.70;;;;;;;13.98;100.00;99447.92;1738341;81;20949;-73
2022/06/18 02:23:52;;;;;;;3.55;3.25;;;;;;;13.96;100.00;99450.23;1731557;82;21014;-72
2022/06/18 02:26:20;;;;;;;2.90;2.60;;;;;;;13.93;100.00;99451.70;1731450;81;21167;-72
2022/06/18 02:28:47;;;;;;;3.30;2.77;;;;;;;13.93;100.00;99466.09;1724799;81;20962;-73
2022/06/18 02:31:18;;;;;;;3.55;2.95;;;;;;;13.95;100.00;99455.08;1710958;82;21072;-72
2022/06/18 02:33:52;;;;;;;3.17;2.77;;;;;;;13.98;100.00;99454.45;1716431;81;21410;-72
2022/06/18 02:36:30;;;;;;;3.22;2.92;;;;;;;14.01;100.00;99458.17;1733598;81;20958;-72
2022/06/18 02:39:21;;;;;;;3.65;2.67;;;;;;;14.02;100.00;99458.55;1728472;82;20969;-72
2022/06/18 02:41:48;;;;;;;2.55;2.35;;;;;;;14.05;100.00;99464.09;1719969;82;21464;-74
2022/06/18 02:44:16;;;;;;;5.70;2.67;;;;;;;14.06;100.00;99461.39;1734846;80;20957;-74
2022/06/18 02:46:43;;;;;;;3.27;3.08;;;;;;;14.09;100.00;99455.99;1732757;81;21007;-74
2022/06/18 02:49:10;;;;;;;4.00;3.60;;;;;;;14.11;100.00;99460.67;1728048;81;20962;-74
2022/06/18 02:51:39;;;;;;;3.05;2.50;;;;;;;14.14;100.00;99464.89;1727313;82;21041;-74
2022/06/18 02:54:06;;;;;;;2.83;2.62;;;;;;;14.17;100.00;99460.80;1731860;82;20991;-74
2022/06/18 02:56:34;;;;;;;3.00;2.70;;;;;;;14.24;100.00;99462.59;1709621;82;21769;-74
2022/06/18 02:59:04;;;;;;;2.67;2.47;;;;;;;14.28;100.00;99466.27;1726277;82;21192;-74
2022/06/18 03:01:33;;;;;;;3.50;3.20;;;;;;;14.33;100.00;99469.93;1738750;82;21054;-74
2022/06/18 03:04:03;;;;;;;3.25;2.87;;;;;;;14.37;100.00;99471.45;1732118;82;21013;-74
2022/06/18 03:06:33;;;;;;;2.25;2.15;;;;;;;14.42;100.00;99472.88;1729312;82;21418;-74
2022/06/18 03:09:00;;;;;;;3.10;2.80;;;;;;;14.47;100.00;99474.78;1733873;82;21098;-74
2022/06/18 03:14:16;;;;;;;2.90;2.70;;;;;;;14.60;100.00;99469.67;1737735;81;21021;-74
2022/06/18 03:16:43;;;;;;;4.87;2.85;;;;;;;14.77;100.00;99476.11;1739313;82;21006;-74
2022/06/18 03:19:47;;;;;;;2.55;2.35;;;;;;;14.89;100.00;99482.39;1719626;82;20997;-74
2022/06/18 03:22:17;;;;;;;2.20;2.00;;;;;;;15.01;100.00;99486.05;1744317;81;21147;-74
2022/06/18 03:24:44;;;;;;;4.60;2.92;;;;;;;15.17;100.00;99476.36;1733850;81;21143;-74
2022/06/18 03:27:12;;;;;;;4.58;2.98;;;;;;;15.34;100.00;99480.11;1734508;81;21442;-74
2022/06/18 03:29:41;;;;;;;3.00;2.70;;;;;;;15.34;100.00;99480.11;1720477;82;20997;-74
2022/06/18 03:32:08;;;;;;;2.87;2.67;;;;;;;15.59;100.00;99478.65;1727676;81;21050;-74
2022/06/18 03:34:37;;;;;;;3.50;3.20;;;;;;;15.87;100.00;99484.30;1719816;82;21151;-74
2022/06/18 03:37:04;;;;;;;3.47;3.17;;;;;;;16.09;100.00;99483.33;1727170;81;20931;-74
2022/06/18 03:39:31;;;;;;;3.65;3.35;;;;;;;16.19;98.54;99483.09;1731663;81;20966;-74
2022/06/18 03:41:58;;;;;;;3.42;3.12;;;;;;;16.23;97.37;99483.27;1723176;82;21034;-75
2022/06/18 03:44:25;;;;;;;3.65;2.60;;;;;;;16.27;96.50;99489.17;1732309;82;21010;-74
2022/06/18 03:46:54;;;;;;;2.92;2.72;;;;;;;16.25;95.25;99491.89;1728716;81;21744;-74
2022/06/18 03:49:26;;;;;;;3.50;3.20;;;;;;;16.18;94.37;99490.16;1730332;81;21006;-73
2022/06/18 03:51:55;;;;;;;3.77;3.12;;;;;;;16.13;94.53;99486.98;1734142;81;21065;-72
2022/06/18 03:54:21;;;;;;;3.50;3.20;;;;;;;16.13;93.79;99496.63;1729979;81;21045;-72
2022/06/18 03:56:48;;;;;;;3.37;3.08;;;;;;;16.08;93.85;99494.29;1723021;81;21142;-74
2022/06/18 03:59:16;;;;;;;4.05;2.85;;;;;;;16.08;93.26;99494.76;1732775;81;21134;-74
2022/06/18 04:01:44;;;;;;;4.72;3.65;;;;;;;16.04;92.89;99495.42;1723118;81;20994;-74
2022/06/18 04:04:12;;;;;;;3.37;3.12;;;;;;;15.99;92.89;99491.39;1735024;81;21011;-74
2022/06/18 04:06:41;;;;;;;3.25;3.02;;;;;;;15.94;92.78;99497.42;1727612;82;21061;-74
2022/06/18 04:09:28;;;;;;;3.50;3.20;;;;;;;15.87;93.21;99493.02;1734717;81;21482;-74
2022/06/18 04:11:56;;;;;;;3.12;2.92;;;;;;;15.79;93.53;99498.73;1729787;82;21179;-74
2022/06/18 04:14:23;;;;;;;3.72;3.12;;;;;;;15.75;94.10;99502.51;1734478;82;20955;-74
2022/06/18 04:16:57;;;;;;;3.37;3.08;;;;;;;15.71;93.86;99497.08;1734763;81;21009;-74
2022/06/18 04:19:26;;;;;;;3.65;3.42;;;;;;;15.66;94.24;99490.42;1728113;81;21017;-74
2022/06/18 04:21:54;;;;;;;4.83;4.33;;;;;;;15.64;94.68;99494.45;1744011;81;20963;-74
2022/06/18 04:24:23;;;;;;;4.22;3.55;;;;;;;15.68;95.04;99496.41;1746725;81;21184;-74
2022/06/18 04:26:54;;;;;;;4.67;3.52;;;;;;;15.78;95.03;99487.05;1735440;81;20960;-74
2022/06/18 04:29:21;;;;;;;3.95;3.58;;;;;;;16.02;94.72;99490.73;1734854;81;21446;-74
2022/06/18 04:31:48;;;;;;;4.62;4.15;;;;;;;16.27;94.25;99483.92;1732795;81;21010;-74
2022/06/18 04:34:15;;;;;;;4.42;4.03;;;;;;;16.52;93.28;99494.52;1740688;81;21089;-74
2022/06/18 04:36:43;;;;;;;28.00;5.60;;;;;;;16.77;91.91;99500.36;1734121;81;21783;-74
2022/06/18 04:39:28;;;;;;;4.70;4.15;;;;;;;17.12;90.91;99502.77;1740081;81;21049;-75
2022/06/18 04:41:57;;;;;;;5.08;4.12;;;;;;;17.70;89.06;99499.25;1739999;81;21006;-75
2022/06/18 04:44:25;;;;;;;4.72;4.33;;;;;;;18.15;86.28;99499.09;1728711;81;21037;-75
2022/06/18 04:46:54;;;;;;;4.60;4.20;;;;;;;18.51;84.68;99504.78;1737846;82;21604;-75
2022/06/18 04:49:22;;;;;;;4.55;4.25;;;;;;;18.86;83.23;99508.30;1737037;82;21602;-75
2022/06/18 04:51:49;;;;;;;5.17;4.50;;;;;;;19.45;80.97;99506.02;1723910;81;21458;-75
2022/06/18 04:54:17;;;;;;;5.10;4.60;;;;;;;20.11;78.67;99503.88;1747517;81;20994;-75
2022/06/18 04:56:45;;;;;;;5.62;5.08;;;;;;;20.90;75.56;99504.47;1723604;82;21563;-75
2022/06/18 04:59:15;;;;;;;5.00;3.98;;;;;;;21.61;72.14;99508.11;1724770;82;21002;-76
2022/06/18 05:01:43;;;;;;;4.33;3.92;;;;;;;22.14;69.38;99509.25;1731015;82;21733;-76
2022/06/18 05:04:28;;;;;;;4.08;3.70;;;;;;;22.44;66.59;99507.81;1743200;81;20999;-76
2022/06/18 05:07:08;;;;;;;4.62;4.17;;;;;;;22.34;65.83;99512.28;1739144;81;21068;-74
2022/06/18 05:09:41;;;;;;;4.75;4.45;;;;;;;22.00;64.88;99521.04;1745830;81;20946;-75
2022/06/18 05:12:19;;;;;;;4.45;4.15;;;;;;;21.47;65.92;99517.73;1748183;81;21009;-76
2022/06/18 05:14:45;;;;;;;9.83;4.90;;;;;;;20.96;67.75;99520.67;1737547;82;21508;-76
2022/06/18 05:17:26;;;;;;;4.65;4.35;;;;;;;20.59;69.23;99524.64;1726596;82;21017;-76
2022/06/18 05:19:54;;;;;;;5.20;4.70;;;;;;;20.21;70.03;99529.88;1731442;82;21463;-75
2022/06/18 05:22:20;;;;;;;5.70;5.03;;;;;;;19.76;70.72;99530.91;1730723;81;20953;-75
2022/06/18 05:24:48;;;;;;;5.40;4.90;;;;;;;19.30;72.25;99523.88;1736856;81;21337;-75
2022/06/18 05:27:31;;;;;;;5.78;5.17;;;;;;;19.03;73.89;99528.59;1732430;81;21269;-74
2022/06/18 05:30:00;;;;;;;5.75;5.35;;;;;;;18.85;75.05;99526.39;1731833;81;21487;-75
2022/06/18 05:32:29;;;;;;;6.45;5.72;;;;;;;18.63;75.54;99530.25;1730401;81;21046;-75
2022/06/18 05:34:56;;;;;;;7.95;4.78;;;;;;;18.57;76.48;99534.64;1738739;81;20986;-75
2022/06/18 05:37:25;;;;;;;6.22;5.40;;;;;;;18.65;76.80;99530.13;1734845;82;20995;-75
2022/06/18 05:39:52;;;;;;;7.53;5.85;;;;;;;18.83;76.30;99536.20;1731347;81;21111;-73
2022/06/18 05:42:21;;;;;;;6.05;5.22;;;;;;;18.88;76.20;99531.44;1738026;81;20987;-75
2022/06/18 05:44:48;;;;;;;6.65;5.58;;;;;;;18.96;75.90;99533.98;1732900;81;20963;-73
2022/06/18 05:47:19;;;;;;;5.83;5.33;;;;;;;19.07;75.94;99545.87;1731994;81;21026;-76
2022/06/18 05:49:46;;;;;;;5.50;4.87;;;;;;;19.13;74.72;99542.30;1732712;81;21054;-73
2022/06/18 05:52:13;;;;;;;5.30;4.90;;;;;;;19.07;73.73;99545.39;1739439;82;21114;-74
2022/06/18 05:54:40;;;;;;;5.53;5.10;;;;;;;18.90;74.05;99543.18;1735211;81;21159;-74
2022/06/18 05:57:09;;;;;;;11.20;5.40;;;;;;;18.87;74.64;99546.04;1732997;81;21486;-74
2022/06/18 05:59:38;;;;;;;5.53;5.03;;;;;;;18.85;74.64;99547.47;1733912;81;21025;-74
2022/06/18 06:02:10;;;;;;;5.12;4.72;;;;;;;18.83;74.87;99545.89;1674241;84;21081;-74
2022/06/18 06:04:42;;;;;;;4.87;4.47;;;;;;;18.76;75.47;99553.91;1621844;86;21523;-75
2022/06/18 06:07:21;;;;;;;5.87;5.28;;;;;;;18.76;75.55;99557.87;1679965;83;21141;-75
2022/06/18 06:12:39;;;;;;;5.37;4.97;;;;;;;19.03;75.18;99553.64;1740082;81;21010;-75
2022/06/18 06:15:09;;;;;;;5.25;4.75;;;;;;;18.92;74.76;99559.25;1741107;81;20986;-75
2022/06/18 06:17:36;;;;;;;9.78;5.42;;;;;;;18.78;74.96;99556.80;1747495;80;21774;-75
2022/06/18 06:20:15;;;;;;;5.92;5.42;;;;;;;18.59;75.09;99554.65;1745260;82;20951;-75
2022/06/18 06:22:42;;;;;;;5.87;5.37;;;;;;;18.50;75.27;99555.78;1740854;82;21105;-74
2022/06/18 06:25:09;;;;;;;6.35;5.80;;;;;;;18.49;75.23;99553.63;1734676;82;20990;-74
2022/06/18 06:27:35;;;;;;;6.92;5.47;;;;;;;18.43;75.40;99560.64;1745691;82;21033;-74
2022/06/18 06:30:03;;;;;;;6.28;5.53;;;;;;;18.43;76.15;99563.75;1723211;81;21223;-74
2022/06/18 06:32:31;;;;;;;6.50;5.90;;;;;;;18.44;76.25;99563.64;1728172;82;21001;-75
2022/06/18 06:34:59;;;;;;;6.47;5.55;;;;;;;18.65;76.29;99569.65;1741517;81;20994;-75
2022/06/18 06:37:25;;;;;;;5.97;5.45;;;;;;;18.82;76.20;99565.30;1733013;81;21527;-75
2022/06/18 06:39:52;;;;;;;8.28;6.12;;;;;;;18.96;74.95;99571.73;1720439;82;20989;-75
2022/06/18 06:42:18;;;;;;;7.70;5.83;;;;;;;19.06;73.80;99571.86;1724051;81;21149;-76
2022/06/18 06:44:47;;;;;;;6.17;5.60;;;;;;;19.13;74.15;99571.78;1725372;82;20939;-75
2022/06/18 06:47:13;;;;;;;7.78;6.80;;;;;;;19.24;73.09;99568.69;1733745;80;21080;-76
2022/06/18 06:49:41;;;;;;;8.53;5.33;;;;;;;19.37;72.68;99560.70;1747389;80;21010;-76
2022/06/18 06:52:11;;;;;;;6.47;5.87;;;;;;;19.54;71.36;99564.23;1738113;82;20990;-76
2022/06/18 06:54:37;;;;;;;6.12;5.50;;;;;;;19.72;70.62;99565.93;1732762;82;21458;-75
2022/06/18 06:57:22;;;;;;;6.10;5.60;;;;;;;19.86;70.08;99563.53;1739489;81;21066;-75
2022/06/18 06:59:49;;;;;;;4.70;4.40;;;;;;;20.00;69.07;99565.08;1733419;82;21089;-75
2022/06/18 07:02:19;;;;;;;6.40;5.50;;;;;;;20.11;68.51;99563.28;1737470;81;21005;-78
2022/06/18 07:04:46;;;;;;;6.12;5.62;;;;;;;20.14;68.33;99566.17;1681144;85;21096;-76
2022/06/18 07:07:15;;;;;;;6.97;5.35;;;;;;;20.13;67.79;99565.33;1682578;83;21158;-75
2022/06/18 07:09:41;;;;;;;5.55;5.15;;;;;;;20.15;67.25;99558.61;1679301;84;21051;-74
2022/06/18 07:12:09;;;;;;;7.55;5.47;;;;;;;20.17;67.15;99556.69;1700456;83;21028;-75
2022/06/18 07:14:37;;;;;;;5.58;5.17;;;;;;;20.27;67.20;99558.45;1693475;83;21017;-75
2022/06/18 07:17:04;;;;;;;6.95;5.15;;;;;;;20.28;66.25;99562.78;1670622;84;21431;-75
2022/06/18 07:19:32;;;;;;;4.92;4.42;;;;;;;20.19;67.15;99560.02;1746374;81;21139;-74
2022/06/18 07:21:58;;;;;;;5.70;4.83;;;;;;;20.18;66.49;99565.78;1748119;81;20982;-74
2022/06/18 07:24:25;;;;;;;6.17;5.00;;;;;;;20.16;65.67;99570.37;1731840;81;21560;-74
2022/06/18 07:26:52;;;;;;;5.17;4.67;;;;;;;20.23;66.30;99564.09;1734809;81;21056;-76
2022/06/18 07:29:20;;;;;;;5.20;4.20;;;;;;;20.37;66.26;99567.01;1737602;81;21148;-75
2022/06/18 07:31:47;;;;;;;4.95;3.90;;;;;;;20.47;66.09;99573.22;1734590;81;21191;-76
2022/06/18 07:34:14;;;;;;;4.83;4.08;;;;;;;20.38;65.53;99572.17;1730258;82;21663;-76
2022/06/18 07:36:41;;;;;;;4.83;4.42;;;;;;;20.32;65.50;99575.27;1681606;83;21107;-75
2022/06/18 07:39:07;;;;;;;5.67;4.47;;;;;;;20.30;65.54;99563.50;1698881;83;20995;-76
2022/06/18 07:41:43;;;;;;;5.20;4.10;;;;;;;20.35;65.98;99563.14;1681833;84;21019;-76
2022/06/18 07:44:10;;;;;;;5.87;4.08;;;;;;;20.46;65.75;99565.77;1738344;82;21730;-75
2022/06/18 07:46:37;;;;;;;4.33;3.92;;;;;;;20.49;65.35;99564.69;1737219;82;20986;-76
2022/06/18 07:49:05;;;;;;;3.75;3.45;;;;;;;20.39;64.38;99569.86;1735100;82;20958;-76
2022/06/18 07:51:32;;;;;;;3.95;3.58;;;;;;;20.20;64.07;99570.94;1738208;81;21006;-75
2022/06/18 07:53:58;;;;;;;7.53;3.55;;;;;;;20.19;64.87;99566.62;1734628;81;21010;-74
2022/06/18 07:56:25;;;;;;;4.40;3.47;;;;;;;20.33;64.81;99564.22;1742797;81;21133;-75
2022/06/18 07:58:51;;;;;;;4.10;3.70;;;;;;;20.58;64.30;99563.95;1739578;82;21077;-75
2022/06/18 08:01:18;;;;;;;5.25;3.42;;;;;;;20.83;63.17;99565.41;1728790;82;21054;-74
2022/06/18 08:03:46;;;;;;;4.17;3.87;;;;;;;20.88;63.01;99566.72;1726714;82;21497;-75
2022/06/18 08:06:13;;;;;;;4.78;3.30;;;;;;;20.83;62.70;99559.64;1726076;80;21051;-75
2022/06/18 08:08:41;;;;;;;5.87;3.77;;;;;;;20.87;62.99;99566.84;1726748;81;20946;-75
2022/06/18 08:11:15;;;;;;;3.72;3.40;;;;;;;20.91;62.29;99567.80;1727407;82;20983;-76
2022/06/18 08:13:43;;;;;;;3.47;3.17;;;;;;;20.88;61.97;99569.36;1730764;81;21109;-75
2022/06/18 08:16:13;;;;;;;3.25;2.90;;;;;;;20.90;61.79;99569.23;1729966;81;21047;-75
2022/06/18 08:18:41;;;;;;;4.87;3.25;;;;;;;20.93;60.99;99565.03;1686155;83;21014;-75
2022/06/18 08:21:16;;;;;;;3.02;2.77;;;;;;;20.89;60.43;99567.08;1705977;82;21862;-74
2022/06/18 08:23:42;;;;;;;3.22;2.65;;;;;;;20.79;60.82;99562.17;1735260;81;21038;-74
2022/06/18 08:26:09;;;;;;;4.87;3.25;;;;;;;20.70;60.92;99570.88;1736523;80;21120;-74
2022/06/18 08:28:36;;;;;;;3.33;2.60;;;;;;;20.63;60.20;99561.28;1727905;81;21114;-75
2022/06/18 08:31:04;;;;;;;5.53;2.25;;;;;;;20.52;60.77;99575.86;1753307;81;21548;-75
2022/06/18 08:33:31;;;;;;;2.25;2.08;;;;;;;20.44;60.02;99562.89;1752978;81;21335;-75
2022/06/18 08:36:03;;;;;;;3.20;1.70;;;;;;;20.41;59.51;99556.05;1742334;82;21085;-75
2022/06/18 08:38:30;;;;;;;3.52;1.90;;;;;;;20.48;58.27;99565.66;1720758;82;21002;-75
2022/06/18 08:41:27;;;;;;;4.87;2.00;;;;;;;20.58;57.38;99558.67;1743013;81;20998;-75
2022/06/18 08:44:29;;;;;;;2.25;2.05;;;;;;;20.69;56.12;99555.98;1749374;81;21478;-75
2022/06/18 08:47:28;;;;;;;3.00;2.50;;;;;;;20.79;56.43;99559.53;1744518;82;21869;-76
2022/06/18 08:50:20;;;;;;;3.00;2.50;;;;;;;20.95;56.95;99567.91;1706969;83;21129;-76
2022/06/18 08:53:11;;;;;;;3.58;2.25;;;;;;;21.11;57.56;99548.95;1730937;81;21551;-77
2022/06/18 08:56:05;;;;;;;2.12;2.02;;;;;;;21.34;57.08;99555.47;1735969;81;21232;-77
2022/06/18 08:58:58;;;;;;;1.75;1.60;;;;;;;21.59;54.27;99547.94;1732689;81;20963;-75
2022/06/18 09:01:28;;;;;;;2.20;1.90;;;;;;;21.83;52.40;99562.20;1728304;82;21791;-76
2022/06/18 09:04:12;;;;;;;2.02;1.87;;;;;;;21.97;51.44;99553.08;1741798;81;21058;-76
2022/06/18 09:07:14;;;;;;;2.08;1.98;;;;;;;22.04;51.39;99550.75;1730285;81;21124;-76
2022/06/18 09:10:00;;;;;;;2.15;2.05;;;;;;;22.05;51.97;99556.39;1719509;82;20994;-75
2022/06/18 09:12:34;;;;;;;3.00;2.10;;;;;;;22.08;51.55;99550.84;1733042;81;21007;-77
2022/06/18 09:15:09;;;;;;;2.55;2.35;;;;;;;22.02;51.61;99545.58;1732037;82;21146;-75
2022/06/18 09:17:44;;;;;;;2.67;2.47;;;;;;;21.85;51.54;99551.48;1731647;82;21064;-76
2022/06/18 09:20:26;;;;;;;3.33;2.80;;;;;;;21.63;51.92;99554.66;1726135;81;20966;-74
2022/06/18 09:23:00;;;;;;;2.80;1.87;;;;;;;21.52;53.08;99553.91;1740347;81;21002;-76
2022/06/18 09:25:30;;;;;;;2.35;2.15;;;;;;;21.63;54.08;99551.16;1681223;84;21007;-76
2022/06/18 09:28:04;;;;;;;3.47;2.10;;;;;;;21.86;53.35;99551.84;1653877;85;21208;-75
2022/06/18 09:30:41;;;;;;;2.20;2.00;;;;;;;22.03;53.12;99553.04;1708160;83;20979;-76
2022/06/18 09:33:11;;;;;;;2.75;2.30;;;;;;;22.27;52.76;99548.23;1682938;84;21251;-76
2022/06/18 09:35:55;;;;;;;2.30;2.10;;;;;;;22.49;51.77;99534.75;1677853;84;37527;-75
2022/06/18 09:38:27;;;;;;;2.52;1.80;;;;;;;22.60;51.43;99540.41;1687039;83;20998;-76
2022/06/18 09:41:01;;;;;;;1.90;1.80;;;;;;;22.64;50.24;99540.48;1675458;85;21224;-76
2022/06/18 09:43:49;;;;;;;3.02;2.10;;;;;;;22.70;49.99;99541.27;1729238;81;20983;-76
2022/06/18 09:46:27;;;;;;;2.05;1.95;;;;;;;22.66;50.26;99536.72;1734355;80;21075;-75
2022/06/18 09:48:57;;;;;;;1.95;1.75;;;;;;;22.46;50.91;99542.98;1727323;81;21068;-77
2022/06/18 09:54:51;;;;;;;2.70;1.90;;;;;;;22.49;51.54;99530.78;1747655;80;21030;-78
2022/06/18 09:57:23;;;;;;;1.90;1.70;;;;;;;22.76;50.83;99533.25;1739515;81;20986;-76
2022/06/18 10:00:02;;;;;;;5.65;1.80;;;;;;;22.84;50.48;99542.69;1732196;81;20977;-76
2022/06/18 10:02:31;;;;;;;2.80;1.60;;;;;;;22.79;49.56;99539.61;1738667;81;21017;-76
2022/06/18 10:07:51;;;;;;;3.40;1.82;;;;;;;22.66;49.65;99531.42;1735866;81;21528;-76
2022/06/18 10:10:25;;;;;;;1.87;1.67;;;;;;;22.68;50.28;99527.30;1730958;81;21013;-76
2022/06/18 10:12:56;;;;;;;1.60;1.50;;;;;;;22.69;49.89;99532.47;1737393;82;20986;-78
2022/06/18 10:15:24;;;;;;;1.40;1.30;;;;;;;22.76;48.87;99520.83;1738353;81;21066;-76
2022/06/18 10:18:31;;;;;;;1.50;1.40;;;;;;;22.92;47.48;99515.83;1733765;81;21045;-76
2022/06/18 10:21:14;;;;;;;2.20;1.50;;;;;;;23.07;47.60;99518.88;1732895;81;22060;-76
2022/06/18 10:24:06;;;;;;;3.10;1.57;;;;;;;23.23;48.20;99528.89;1731223;81;20951;-76
2022/06/18 10:26:57;;;;;;;2.35;1.72;;;;;;;23.33;48.28;99516.46;1732494;82;21127;-75
2022/06/18 10:29:53;;;;;;;2.90;1.40;;;;;;;23.36;47.07;99522.33;1743222;81;20971;-75
2022/06/18 10:32:45;;;;;;;3.12;1.70;;;;;;;23.40;47.09;99513.55;1723670;82;21943;-75
2022/06/18 10:35:39;;;;;;;2.20;1.22;;;;;;;23.45;45.37;99520.61;1733428;81;21086;-76
2022/06/18 10:38:20;;;;;;;1.75;1.55;;;;;;;23.52;45.95;99519.58;1735037;81;21434;-76
2022/06/18 10:41:14;;;;;;;4.12;1.55;;;;;;;23.56;46.54;99513.01;1707820;81;21007;-77
2022/06/18 10:44:06;;;;;;;6.53;1.87;;;;;;;23.63;46.47;99518.90;1738329;81;20966;-77
2022/06/18 10:46:33;;;;;;;2.95;1.60;;;;;;;23.77;46.61;99515.45;1735419;81;20999;-76
2022/06/18 10:49:03;;;;;;;3.20;1.70;;;;;;;23.87;45.46;99509.09;1728898;81;21740;-77
2022/06/18 10:51:46;;;;;;;5.03;1.52;;;;;;;23.89;45.59;99514.26;1724027;82;21410;-76
2022/06/18 10:54:14;;;;;;;3.08;1.60;;;;;;;23.85;45.58;99519.02;1744360;81;21065;-76
2022/06/18 10:56:55;;;;;;;2.30;1.65;;;;;;;23.81;45.42;99514.14;1746912;80;20959;-76
2022/06/18 10:59:35;;;;;;;1.30;1.20;;;;;;;23.83;44.27;99507.70;1738030;81;21402;-75
2022/06/18 11:02:16;;;;;;;2.02;1.55;;;;;;;23.91;43.98;99514.45;1740979;81;21104;-76
2022/06/18 11:04:58;;;;;;;2.30;1.40;;;;;;;23.97;42.56;99513.87;1747215;81;20950;-76
2022/06/18 11:07:27;;;;;;;1.10;1.10;;;;;;;23.98;43.01;99502.23;1743266;81;20982;-76
2022/06/18 11:10:05;;;;;;;2.30;1.70;;;;;;;24.02;43.42;99501.45;1724121;82;20946;-76
2022/06/18 11:12:38;;;;;;;1.52;1.42;;;;;;;23.95;43.69;99519.83;1736911;82;21101;-76
2022/06/18 11:15:22;;;;;;;1.45;1.22;;;;;;;23.68;45.02;99512.67;1722609;82;21123;-76
2022/06/18 11:17:48;;;;;;;1.40;1.30;;;;;;;23.58;46.03;99514.51;1737102;82;21938;-77
2022/06/18 11:20:23;;;;;;;2.17;1.37;;;;;;;23.61;45.37;99516.04;1737261;82;20998;-76
2022/06/18 11:23:01;;;;;;;1.85;1.50;;;;;;;23.65;45.27;99516.09;1699622;83;21053;-77
2022/06/18 11:25:37;;;;;;;2.25;1.55;;;;;;;23.77;45.09;99511.45;1674855;84;21108;-76
2022/06/18 11:28:21;;;;;;;1.65;1.20;;;;;;;23.88;43.44;99509.44;1676305;84;21101;-76
2022/06/18 11:30:49;;;;;;;2.95;1.50;;;;;;;24.01;43.13;99505.93;1741583;82;21476;-77
2022/06/18 11:33:39;;;;;;;2.08;1.10;;;;;;;24.24;42.71;99506.89;1741234;81;21562;-77
2022/06/18 11:36:16;;;;;;;3.55;1.57;;;;;;;24.36;42.42;99503.88;1734089;81;21446;-77
2022/06/18 11:38:56;;;;;;;2.92;1.50;;;;;;;24.42;43.20;99499.77;1699560;83;21026;-76
2022/06/18 11:41:30;;;;;;;4.15;1.50;;;;;;;24.55;43.52;99502.07;1691302;83;21272;-76
2022/06/18 11:44:23;;;;;;;2.60;1.80;;;;;;;24.70;43.41;99501.88;1687805;85;21058;-76
2022/06/18 11:47:14;;;;;;;2.33;1.60;;;;;;;24.79;44.24;99505.42;1687560;85;21027;-77
2022/06/18 11:49:52;;;;;;;2.83;1.80;;;;;;;24.64;44.39;99503.80;1660007;85;20974;-77
2022/06/18 11:53:00;;;;;;;7.83;4.15;;;;;;;24.48;45.32;99513.80;1687601;85;21183;-76
2022/06/18 11:55:36;;;;;;;5.40;2.00;;;;;;;24.30;45.74;99507.13;1687468;84;21223;-76
2022/06/18 11:58:28;;;;;;;7.90;1.82;;;;;;;24.09;45.08;99504.37;1687456;85;20974;-77
2022/06/18 12:01:10;;;;;;;2.40;1.70;;;;;;;23.98;45.65;99503.56;1687535;85;21058;-77
2022/06/18 12:03:54;;;;;;;1.55;1.45;;;;;;;23.87;45.43;99520.20;1680082;84;21089;-77
2022/06/18 12:06:40;;;;;;;5.28;1.67;;;;;;;23.68;44.68;99511.34;1736286;81;20943;-78
2022/06/18 12:09:10;;;;;;;2.87;1.72;;;;;;;23.62;44.78;99505.77;1735257;81;21154;-77
2022/06/18 12:12:02;;;;;;;2.10;1.70;;;;;;;23.69;43.69;99511.69;1681337;83;20998;-79
2022/06/18 12:14:47;;;;;;;2.10;1.50;;;;;;;23.75;43.71;99500.14;1724166;81;21008;-76